sensor_id;sensor_type;location;lat;lon;timestamp;temperature;humidity
75517;DHT22;64097;52.548;13.406;2023-06-14T06:02:34;21.00;51.30
75517;DHT22;64097;52.548;13.406;2023-06-14T06:04:59;21.00;51.30
75517;DHT22;64097;52.548;13.406;2023-06-14T06:07:25;21.10;51.30
75517;DHT22;64097;52.548;13.406;2023-06-14T06:09:51;21.10;51.20
75517;DHT22;64097;52.548;13.406;2023-06-14T06:12:17;21.10;51.20
75517;DHT22;64097;52.548;13.406;2023-06-14T06:14:43;21.10;51.20
75517;DHT22;64097;52.548;13.406;2023-06-14T06:17:10;21.20;51.20
75517;DHT22;64097;52.548;13.406;2023-06-14T06:19:36;21.20;51.20
75517;DHT22;64097;52.548;13.406;2023-06-14T06:22:02;21.20;51.20
75517;DHT22;64097;52.548;13.406;2023-06-14T06:24:30;21.20;51.10
75517;DHT22;64097;52.548;13.406;2023-06-14T06:26:56;21.30;51.10
75517;DHT22;64097;52.548;13.406;2023-06-14T06:29:22;21.30;51.10
75517;DHT22;64097;52.548;13.406;2023-06-14T06:31:47;21.30;51.10
75517;DHT22;64097;52.548;13.406;2023-06-14T06:34:13;21.30;51.10
75517;DHT22;64097;52.548;13.406;2023-06-14T06:36:39;21.30;51.00
75517;DHT22;64097;52.548;13.406;2023-06-14T06:39:07;21.30;50.90
75517;DHT22;64097;52.548;13.406;2023-06-14T06:41:38;21.30;51.00
75517;DHT22;64097;52.548;13.406;2023-06-14T06:44:07;21.30;51.00
75517;DHT22;64097;52.548;13.406;2023-06-14T06:46:36;21.30;51.00
75517;DHT22;64097;52.548;13.406;2023-06-14T06:49:09;21.30;51.10
75517;DHT22;64097;52.548;13.406;2023-06-14T06:51:40;21.30;51.10
75517;DHT22;64097;52.548;13.406;2023-06-14T06:54:07;21.30;51.10
75517;DHT22;64097;52.548;13.406;2023-06-14T06:56:34;21.40;51.00
75517;DHT22;64097;52.548;13.406;2023-06-14T06:58:59;21.40;51.00
75517;DHT22;64097;52.548;13.406;2023-06-14T07:01:25;21.50;50.90
75517;DHT22;64097;52.548;13.406;2023-06-14T07:03:52;21.50;50.80
75517;DHT22;64097;52.548;13.406;2023-06-14T07:06:17;21.50;50.80
75517;DHT22;64097;52.548;13.406;2023-06-14T07:08:44;21.50;50.70
75517;DHT22;64097;52.548;13.406;2023-06-14T07:11:11;21.60;51.40
75517;DHT22;64097;52.548;13.406;2023-06-14T07:13:36;21.60;50.70
75517;DHT22;64097;52.548;13.406;2023-06-14T07:16:05;21.70;50.60
75517;DHT22;64097;52.548;13.406;2023-06-14T07:18:34;21.70;50.60
75517;DHT22;64097;52.548;13.406;2023-06-14T07:21:01;21.70;50.50
75517;DHT22;64097;52.548;13.406;2023-06-14T07:23:27;21.70;50.50
75517;DHT22;64097;52.548;13.406;2023-06-14T07:25:53;21.80;50.60
75517;DHT22;64097;52.548;13.406;2023-06-14T07:28:19;21.80;50.60
75517;DHT22;64097;52.548;13.406;2023-06-14T07:30:44;21.90;50.60
75517;DHT22;64097;52.548;13.406;2023-06-14T07:33:10;21.90;50.60
75517;DHT22;64097;52.548;13.406;2023-06-14T07:35:37;21.90;50.50
75517;DHT22;64097;52.548;13.406;2023-06-14T07:38:03;21.90;50.40
75517;DHT22;64097;52.548;13.406;2023-06-14T07:40:28;22.00;50.40
75517;DHT22;64097;52.548;13.406;2023-06-14T07:42:54;22.00;50.40
75517;DHT22;64097;52.548;13.406;2023-06-14T07:45:20;22.10;50.40
75517;DHT22;64097;52.548;13.406;2023-06-14T07:47:46;22.20;50.30
75517;DHT22;64097;52.548;13.406;2023-06-14T07:50:12;22.30;50.10
75517;DHT22;64097;52.548;13.406;2023-06-14T07:52:39;22.30;49.80
75517;DHT22;64097;52.548;13.406;2023-06-14T07:55:05;22.40;49.80
75517;DHT22;64097;52.548;13.406;2023-06-14T07:57:31;22.50;49.80
75517;DHT22;64097;52.548;13.406;2023-06-14T07:59:57;22.50;49.70
75517;DHT22;64097;52.548;13.406;2023-06-14T08:02:22;22.60;49.40
75517;DHT22;64097;52.548;13.406;2023-06-14T08:04:48;22.60;49.20
75517;DHT22;64097;52.548;13.406;2023-06-14T08:07:14;22.70;49.10
75517;DHT22;64097;52.548;13.406;2023-06-14T08:09:40;22.70;49.10
75517;DHT22;64097;52.548;13.406;2023-06-14T08:12:06;22.80;49.00
75517;DHT22;64097;52.548;13.406;2023-06-14T08:14:35;22.90;48.80
75517;DHT22;64097;52.548;13.406;2023-06-14T08:17:01;22.90;48.50
75517;DHT22;64097;52.548;13.406;2023-06-14T08:19:27;23.00;48.40
75517;DHT22;64097;52.548;13.406;2023-06-14T08:21:53;23.00;48.10
75517;DHT22;64097;52.548;13.406;2023-06-14T08:24:23;23.00;48.70
75517;DHT22;64097;52.548;13.406;2023-06-14T08:26:55;23.10;48.00
75517;DHT22;64097;52.548;13.406;2023-06-14T08:29:22;23.10;48.00
75517;DHT22;64097;52.548;13.406;2023-06-14T08:31:48;23.10;47.70
75517;DHT22;64097;52.548;13.406;2023-06-14T08:34:14;23.10;47.40
75517;DHT22;64097;52.548;13.406;2023-06-14T08:36:39;23.20;47.20
75517;DHT22;64097;52.548;13.406;2023-06-14T08:39:05;23.20;47.40
75517;DHT22;64097;52.548;13.406;2023-06-14T08:41:31;23.20;47.40
75517;DHT22;64097;52.548;13.406;2023-06-14T08:43:58;23.20;47.20
75517;DHT22;64097;52.548;13.406;2023-06-14T08:46:25;23.30;46.90
75517;DHT22;64097;52.548;13.406;2023-06-14T08:48:55;23.30;46.70
75517;DHT22;64097;52.548;13.406;2023-06-14T08:51:25;23.30;46.20
75517;DHT22;64097;52.548;13.406;2023-06-14T08:53:56;23.40;46.30
75517;DHT22;64097;52.548;13.406;2023-06-14T08:56:27;23.40;46.30
75517;DHT22;64097;52.548;13.406;2023-06-14T08:58:55;23.50;46.30
75517;DHT22;64097;52.548;13.406;2023-06-14T09:01:22;23.50;46.20
75517;DHT22;64097;52.548;13.406;2023-06-14T09:03:49;23.50;45.10
75517;DHT22;64097;52.548;13.406;2023-06-14T09:06:16;23.60;44.60
75517;DHT22;64097;52.548;13.406;2023-06-14T09:08:47;23.60;44.60
75517;DHT22;64097;52.548;13.406;2023-06-14T09:11:18;23.60;44.30
75517;DHT22;64097;52.548;13.406;2023-06-14T09:13:45;23.60;44.50
75517;DHT22;64097;52.548;13.406;2023-06-14T09:16:11;23.70;44.60
75517;DHT22;64097;52.548;13.406;2023-06-14T09:18:40;23.70;44.60
75517;DHT22;64097;52.548;13.406;2023-06-14T09:21:07;23.80;44.80
75517;DHT22;64097;52.548;13.406;2023-06-14T09:23:40;23.80;44.80
75517;DHT22;64097;52.548;13.406;2023-06-14T09:26:17;23.90;44.60
75517;DHT22;64097;52.548;13.406;2023-06-14T09:28:47;23.90;44.50
75517;DHT22;64097;52.548;13.406;2023-06-14T09:31:15;24.00;44.50
75517;DHT22;64097;52.548;13.406;2023-06-14T09:33:49;24.00;44.60
75517;DHT22;64097;52.548;13.406;2023-06-14T09:36:15;24.00;44.60
75517;DHT22;64097;52.548;13.406;2023-06-14T09:38:44;24.20;44.60
75517;DHT22;64097;52.548;13.406;2023-06-14T09:41:16;24.20;44.00
75517;DHT22;64097;52.548;13.406;2023-06-14T09:43:42;24.30;44.10
75517;DHT22;64097;52.548;13.406;2023-06-14T09:46:09;24.30;44.10
75517;DHT22;64097;52.548;13.406;2023-06-14T09:48:35;24.40;44.00
75517;DHT22;64097;52.548;13.406;2023-06-14T09:51:01;24.40;43.70
75517;DHT22;64097;52.548;13.406;2023-06-14T09:53:30;24.40;43.50
75517;DHT22;64097;52.548;13.406;2023-06-14T09:55:58;24.50;43.20
75517;DHT22;64097;52.548;13.406;2023-06-14T09:58:26;24.50;42.90
75517;DHT22;64097;52.548;13.406;2023-06-14T10:00:54;24.50;42.60
75517;DHT22;64097;52.548;13.406;2023-06-14T10:03:28;24.60;42.70
75517;DHT22;64097;52.548;13.406;2023-06-14T10:05:55;24.60;43.40
75517;DHT22;64097;52.548;13.406;2023-06-14T10:08:28;24.60;42.30
75517;DHT22;64097;52.548;13.406;2023-06-14T10:10:56;24.60;42.20
75517;DHT22;64097;52.548;13.406;2023-06-14T10:13:22;24.60;42.10
75517;DHT22;64097;52.548;13.406;2023-06-14T10:21:28;24.50;42.20
75517;DHT22;64097;52.548;13.406;2023-06-14T10:23:59;24.50;42.30
75517;DHT22;64097;52.548;13.406;2023-06-14T10:26:26;24.50;42.10
75517;DHT22;64097;52.548;13.406;2023-06-14T10:31:44;24.60;42.30
75517;DHT22;64097;52.548;13.406;2023-06-14T10:34:11;24.60;42.30
75517;DHT22;64097;52.548;13.406;2023-06-14T10:36:40;24.70;42.90
75517;DHT22;64097;52.548;13.406;2023-06-14T10:39:17;24.70;41.80
75517;DHT22;64097;52.548;13.406;2023-06-14T10:41:53;24.80;41.90
75517;DHT22;64097;52.548;13.406;2023-06-14T10:46:55;24.90;41.80
75517;DHT22;64097;52.548;13.406;2023-06-14T10:52:28;24.90;41.80
75517;DHT22;64097;52.548;13.406;2023-06-14T10:57:35;25.00;41.40
75517;DHT22;64097;52.548;13.406;2023-06-14T11:00:01;25.00;41.00
75517;DHT22;64097;52.548;13.406;2023-06-14T11:02:48;25.10;40.40
75517;DHT22;64097;52.548;13.406;2023-06-14T11:05:24;25.10;40.10
75517;DHT22;64097;52.548;13.406;2023-06-14T11:10:44;25.10;40.10
75517;DHT22;64097;52.548;13.406;2023-06-14T11:13:13;25.10;40.30
75517;DHT22;64097;52.548;13.406;2023-06-14T11:15:45;25.10;40.10
75517;DHT22;64097;52.548;13.406;2023-06-14T11:18:14;25.10;40.10
75517;DHT22;64097;52.548;13.406;2023-06-14T11:20:42;25.20;39.80
75517;DHT22;64097;52.548;13.406;2023-06-14T11:23:08;25.10;39.70
75517;DHT22;64097;52.548;13.406;2023-06-14T11:25:33;25.20;39.80
75517;DHT22;64097;52.548;13.406;2023-06-14T11:27:59;25.20;39.60
75517;DHT22;64097;52.548;13.406;2023-06-14T11:30:25;25.30;39.20
75517;DHT22;64097;52.548;13.406;2023-06-14T11:32:52;25.30;39.00
75517;DHT22;64097;52.548;13.406;2023-06-14T11:35:21;25.30;38.70
75517;DHT22;64097;52.548;13.406;2023-06-14T11:37:49;25.40;39.00
75517;DHT22;64097;52.548;13.406;2023-06-14T11:40:17;25.40;38.60
75517;DHT22;64097;52.548;13.406;2023-06-14T11:42:43;25.40;38.50
75517;DHT22;64097;52.548;13.406;2023-06-14T11:45:10;25.40;38.50
75517;DHT22;64097;52.548;13.406;2023-06-14T11:47:38;25.50;38.20
75517;DHT22;64097;52.548;13.406;2023-06-14T11:50:06;25.50;38.30
75517;DHT22;64097;52.548;13.406;2023-06-14T11:52:32;25.60;38.10
75517;DHT22;64097;52.548;13.406;2023-06-14T11:54:58;25.60;37.80
75517;DHT22;64097;52.548;13.406;2023-06-14T11:57:25;25.60;37.60
75517;DHT22;64097;52.548;13.406;2023-06-14T11:59:51;25.70;37.40
75517;DHT22;64097;52.548;13.406;2023-06-14T12:02:18;25.70;37.20
75517;DHT22;64097;52.548;13.406;2023-06-14T12:04:46;25.80;36.80
75517;DHT22;64097;52.548;13.406;2023-06-14T12:07:15;25.80;36.40
75517;DHT22;64097;52.548;13.406;2023-06-14T12:10:03;25.80;36.00
75517;DHT22;64097;52.548;13.406;2023-06-14T12:12:40;25.80;36.10
75517;DHT22;64097;52.548;13.406;2023-06-14T12:15:08;25.80;35.40
75517;DHT22;64097;52.548;13.406;2023-06-14T12:17:35;25.80;35.30
75517;DHT22;64097;52.548;13.406;2023-06-14T12:20:12;25.70;35.30
75517;DHT22;64097;52.548;13.406;2023-06-14T12:22:54;25.70;35.40
75517;DHT22;64097;52.548;13.406;2023-06-14T12:25:30;25.70;35.10
75517;DHT22;64097;52.548;13.406;2023-06-14T12:28:04;25.70;35.30
75517;DHT22;64097;52.548;13.406;2023-06-14T12:30:31;25.70;34.60
75517;DHT22;64097;52.548;13.406;2023-06-14T12:32:58;25.70;34.70
75517;DHT22;64097;52.548;13.406;2023-06-14T12:35:26;25.70;34.70
75517;DHT22;64097;52.548;13.406;2023-06-14T12:37:51;25.70;34.60
75517;DHT22;64097;52.548;13.406;2023-06-14T12:40:17;25.70;34.30
75517;DHT22;64097;52.548;13.406;2023-06-14T12:42:45;25.70;34.40
75517;DHT22;64097;52.548;13.406;2023-06-14T12:45:12;25.80;34.70
75517;DHT22;64097;52.548;13.406;2023-06-14T12:47:39;25.80;34.10
75517;DHT22;64097;52.548;13.406;2023-06-14T12:50:05;25.80;33.80
75517;DHT22;64097;52.548;13.406;2023-06-14T12:52:31;25.90;33.80
75517;DHT22;64097;52.548;13.406;2023-06-14T12:54:57;26.00;33.90
75517;DHT22;64097;52.548;13.406;2023-06-14T12:57:23;26.00;34.20
75517;DHT22;64097;52.548;13.406;2023-06-14T12:59:49;26.00;34.20
75517;DHT22;64097;52.548;13.406;2023-06-14T13:02:19;26.10;34.30
75517;DHT22;64097;52.548;13.406;2023-06-14T13:04:48;26.10;34.00
75517;DHT22;64097;52.548;13.406;2023-06-14T13:07:13;26.20;33.60
75517;DHT22;64097;52.548;13.406;2023-06-14T13:09:41;26.20;33.40
75517;DHT22;64097;52.548;13.406;2023-06-14T13:12:08;26.20;33.20
75517;DHT22;64097;52.548;13.406;2023-06-14T13:14:34;26.30;33.50
75517;DHT22;64097;52.548;13.406;2023-06-14T13:17:00;26.30;33.40
75517;DHT22;64097;52.548;13.406;2023-06-14T13:19:28;26.30;33.60
75517;DHT22;64097;52.548;13.406;2023-06-14T13:21:53;26.30;33.90
75517;DHT22;64097;52.548;13.406;2023-06-14T13:24:19;26.40;33.70
75517;DHT22;64097;52.548;13.406;2023-06-14T13:26:45;26.40;33.20
75517;DHT22;64097;52.548;13.406;2023-06-14T13:29:11;26.50;32.70
75517;DHT22;64097;52.548;13.406;2023-06-14T13:31:39;26.50;32.60
75517;DHT22;64097;52.548;13.406;2023-06-14T13:34:05;26.50;32.50
75517;DHT22;64097;52.548;13.406;2023-06-14T13:36:31;26.50;32.30
75517;DHT22;64097;52.548;13.406;2023-06-14T13:38:57;26.50;32.30
75517;DHT22;64097;52.548;13.406;2023-06-14T13:41:26;26.50;31.60
75517;DHT22;64097;52.548;13.406;2023-06-14T13:43:57;26.60;31.30
75517;DHT22;64097;52.548;13.406;2023-06-14T13:46:24;26.60;30.90
75517;DHT22;64097;52.548;13.406;2023-06-14T13:48:49;26.60;31.10
75517;DHT22;64097;52.548;13.406;2023-06-14T13:51:15;26.60;31.40
75517;DHT22;64097;52.548;13.406;2023-06-14T13:53:43;26.60;31.30
75517;DHT22;64097;52.548;13.406;2023-06-14T13:56:09;26.70;31.50
75517;DHT22;64097;52.548;13.406;2023-06-14T13:58:37;26.70;31.20
